Time;durP1;ratioP1;P1;durP2;ratioP2;P2;SDS_P1;SDS_P2;PMS_P1;PMS_P2;Temp;Humidity;BMP_temperature;BMP_pressure;BME280_temperature;BME280_humidity;BME280_pressure;Samples;Min_cycle;Max_cycle;Signal;HPM_P1;HPM_P2
2021/12/15 00:02:12;;;;;;;;;;;;;;;;;;5091804;28;19963;-77
2021/12/15 00:04:38;;;;;;;;;;;;;;;;;;5079747;28;19916;-77
2021/12/15 00:07:04;;;;;;;;;;;;;;;;;;5074155;28;19917;-78
2021/12/15 00:09:29;;;;;;;;;;;;;;;;;;5073838;28;19942;-77
2021/12/15 00:11:54;;;;;;;;;;;;;;;;;;5073571;28;19912;-76
2021/12/15 00:14:20;;;;;;;;;;;;;;;;;;5074041;28;19916;-77
2021/12/15 00:16:47;;;;;;;;;;;;;;;;;;5073904;28;20354;-76
2021/12/15 00:19:13;;;;;;;;;;;;;;;;;;5073859;28;19920;-77
2021/12/15 00:21:38;;;;;;;;;;;;;;;;;;5072663;28;19961;-78
2021/12/15 00:24:05;;;;;;;;;;;;;;;;;;5073893;28;19920;-77
2021/12/15 00:26:30;;;;;;;;;;;;;;;;;;5073573;28;19916;-76
2021/12/15 00:28:56;;;;;;;;;;;;;;;;;;5072561;28;19923;-77
2021/12/15 00:31:22;;;;;;;;;;;;;;;;;;5073751;28;20053;-76
2021/12/15 00:33:47;;;;;;;;;;;;;;;;;;5080499;28;19958;-77
2021/12/15 00:36:15;;;;;;;;;;;;;;;;;;5093801;28;19923;-77
2021/12/15 00:38:40;;;;;;;;;;;;;;;;;;5092203;28;19920;-78
2021/12/15 00:41:06;;;;;;;;;;;;;;;;;;5094188;28;19916;-77
2021/12/15 00:43:32;;;;;;;;;;;;;;;;;;5093931;28;19916;-77
2021/12/15 00:45:57;;;;;;;;;;;;;;;;;;5092151;28;20304;-77
2021/12/15 00:48:23;;;;;;;;;;;;;;;;;;5098132;28;20007;-77
2021/12/15 00:50:49;;;;;;;;;;;;;;;;;;5114275;28;19915;-78
2021/12/15 00:53:14;;;;;;;;;;;;;;;;;;5114121;28;20278;-78
2021/12/15 00:55:43;;;;;;;;;;;;;;;;;;5112686;28;20363;-77
2021/12/15 00:58:09;;;;;;;;;;;;;;;;;;5113795;28;19934;-77
2021/12/15 01:00:40;;;;;;;;;;;;;;;;;;5114162;28;20289;-77
2021/12/15 01:03:05;;;;;;;;;;;;;;;;;;5096000;28;20277;-76
2021/12/15 01:05:34;;;;;;;;;;;;;;;;;;5113655;28;19919;-77
2021/12/15 01:08:01;;;;;;;;;;;;;;;;;;5112506;28;20404;-77
2021/12/15 01:10:39;;;;;;;;;;;;;;;;;;5114093;28;19982;-77
2021/12/15 01:20:59;;;;;;;;;;;;;;;;;;5093695;28;19916;-77
2021/12/15 01:23:26;;;;;;;;;;;;;;;;;;5093187;28;20007;-77
2021/12/15 01:25:54;;;;;;;;;;;;;;;;;;5096147;28;19923;-77
2021/12/15 01:28:20;;;;;;;;;;;;;;;;;;5097277;28;20384;-78
2021/12/15 01:30:46;;;;;;;;;;;;;;;;;;5097273;28;19916;-77
2021/12/15 01:33:12;;;;;;;;;;;;;;;;;;5097248;28;19926;-76
2021/12/15 01:35:39;;;;;;;;;;;;;;;;;;5097544;28;20022;-77
2021/12/15 01:38:05;;;;;;;;;;;;;;;;;;5095864;28;19920;-77
2021/12/15 01:40:36;;;;;;;;;;;;;;;;;;5095872;28;19924;-76
2021/12/15 01:43:04;;;;;;;;;;;;;;;;;;5096936;28;19963;-77
2021/12/15 01:48:14;;;;;;;;;;;;;;;;;;5096716;28;20369;-77
2021/12/15 01:50:41;;;;;;;;;;;;;;;;;;5096715;28;19916;-77
2021/12/15 01:53:09;;;;;;;;;;;;;;;;;;5094790;28;21371;-76
2021/12/15 01:55:35;;;;;;;;;;;;;;;;;;5096665;28;19963;-76
2021/12/15 01:58:00;;;;;;;;;;;;;;;;;;5095324;28;19974;-77
2021/12/15 02:00:28;;;;;;;;;;;;;;;;;;5097002;28;19922;-76
2021/12/15 02:02:56;;;;;;;;;;;;;;;;;;5096749;28;19920;-77
2021/12/15 02:05:22;;;;;;;;;;;;;;;;;;5095820;28;20414;-76
2021/12/15 02:07:48;;;;;;;;;;;;;;;;;;5076087;28;19916;-76
2021/12/15 02:10:14;;;;;;;;;;;;;;;;;;5058063;28;19923;-77
2021/12/15 02:12:41;;;;;;;;;;;;;;;;;;5074958;28;19923;-77
2021/12/15 02:15:17;;;;;;;;;;;;;;;;;;5075230;28;19916;-76
2021/12/15 02:17:44;;;;;;;;;;;;;;;;;;5074517;28;19923;-77
2021/12/15 02:20:18;;;;;;;;;;;;;;;;;;5074984;28;19942;-76
2021/12/15 02:22:44;;;;;;;;;;;;;;;;;;5075048;28;19963;-77
2021/12/15 02:25:12;;;;;;;;;;;;;;;;;;5074612;28;20017;-77
2021/12/15 02:27:38;;;;;;;;;;;;;;;;;;5076186;28;20328;-77
2021/12/15 02:30:22;;;;;;;;;;;;;;;;;;5076222;28;20011;-76
2021/12/15 02:38:02;;;;;;;;;;;;;;;;;;5075814;28;19920;-77
2021/12/15 02:40:27;;;;;;;;;;;;;;;;;;5074622;28;19924;-77
2021/12/15 02:42:52;;;;;;;;;;;;;;;;;;5074364;28;19916;-76
2021/12/15 02:45:20;;;;;;;;;;;;;;;;;;5074622;28;19922;-77
2021/12/15 02:47:46;;;;;;;;;;;;;;;;;;5075336;28;19974;-78
2021/12/15 02:50:13;;;;;;;;;;;;;;;;;;5075251;28;19920;-77
2021/12/15 02:52:38;;;;;;;;;;;;;;;;;;5075572;28;19916;-77
2021/12/15 02:55:05;;;;;;;;;;;;;;;;;;5075539;28;19962;-77
2021/12/15 02:57:30;;;;;;;;;;;;;;;;;;5075077;28;19948;-77
2021/12/15 03:00:01;;;;;;;;;;;;;;;;;;5095803;28;19955;-76
2021/12/15 03:05:19;;;;;;;;;;;;;;;;;;5096289;28;19970;-76
2021/12/15 03:16:02;;;;;;;;;;;;;;;;;;5075231;28;19970;-77
2021/12/15 03:18:28;;;;;;;;;;;;;;;;;;5075104;28;19921;-77
2021/12/15 03:20:56;;;;;;;;;;;;;;;;;;5075084;28;19932;-76
2021/12/15 03:23:25;;;;;;;;;;;;;;;;;;5075027;28;19917;-76
2021/12/15 03:25:51;;;;;;;;;;;;;;;;;;5074672;28;19970;-76
2021/12/15 03:36:13;;;;;;;;;;;;;;;;;;5092983;28;19924;-77
2021/12/15 03:38:40;;;;;;;;;;;;;;;;;;5094628;28;20571;-77
2021/12/15 03:41:07;;;;;;;;;;;;;;;;;;5095044;28;19912;-77
2021/12/15 03:43:33;;;;;;;;;;;;;;;;;;5095009;28;19923;-77
2021/12/15 03:46:00;;;;;;;;;;;;;;;;;;5093832;28;19920;-77
2021/12/15 03:48:29;;;;;;;;;;;;;;;;;;5093004;28;19916;-76
2021/12/15 03:50:56;;;;;;;;;;;;;;;;;;5094684;28;19962;-77
2021/12/15 03:53:22;;;;;;;;;;;;;;;;;;5093099;28;19969;-77
2021/12/15 03:55:47;;;;;;;;;;;;;;;;;;5094450;28;20006;-77
2021/12/15 03:58:13;;;;;;;;;;;;;;;;;;5094339;28;19920;-77
2021/12/15 04:00:45;;;;;;;;;;;;;;;;;;5094619;28;19916;-77
2021/12/15 04:03:18;;;;;;;;;;;;;;;;;;5093885;28;20374;-77
2021/12/15 04:05:43;;;;;;;;;;;;;;;;;;5094265;28;19939;-76
2021/12/15 04:08:08;;;;;;;;;;;;;;;;;;5094418;28;19916;-77
2021/12/15 04:10:36;;;;;;;;;;;;;;;;;;5094450;28;19922;-77
2021/12/15 04:13:01;;;;;;;;;;;;;;;;;;5093992;28;19916;-77
2021/12/15 04:15:30;;;;;;;;;;;;;;;;;;5093983;28;20373;-78
2021/12/15 04:18:00;;;;;;;;;;;;;;;;;;5094049;28;19938;-77
2021/12/15 04:20:27;;;;;;;;;;;;;;;;;;5094010;28;19916;-77
2021/12/15 04:22:52;;;;;;;;;;;;;;;;;;5094383;28;19916;-77
2021/12/15 04:25:20;;;;;;;;;;;;;;;;;;5094304;28;20034;-77
2021/12/15 04:27:54;;;;;;;;;;;;;;;;;;5093520;28;19955;-78
2021/12/15 04:30:19;;;;;;;;;;;;;;;;;;5093654;28;19922;-77
2021/12/15 04:32:46;;;;;;;;;;;;;;;;;;5093834;28;19940;-77
2021/12/15 04:35:12;;;;;;;;;;;;;;;;;;5110714;28;20277;-77
2021/12/15 04:37:38;;;;;;;;;;;;;;;;;;5113590;28;19927;-76
2021/12/15 04:40:05;;;;;;;;;;;;;;;;;;5114087;28;19919;-76
2021/12/15 04:42:31;;;;;;;;;;;;;;;;;;5114065;28;19915;-76
2021/12/15 04:44:57;;;;;;;;;;;;;;;;;;5114263;28;20038;-76
2021/12/15 04:47:23;;;;;;;;;;;;;;;;;;5114127;28;19920;-76
2021/12/15 04:49:51;;;;;;;;;;;;;;;;;;5114057;28;19957;-76
2021/12/15 04:52:18;;;;;;;;;;;;;;;;;;5114194;28;19915;-76
2021/12/15 04:54:44;;;;;;;;;;;;;;;;;;5113926;28;19945;-76
2021/12/15 04:57:10;;;;;;;;;;;;;;;;;;5113706;28;20400;-76
2021/12/15 04:59:35;;;;;;;;;;;;;;;;;;5117855;28;20324;-76
2021/12/15 05:02:02;;;;;;;;;;;;;;;;;;5118023;28;19926;-76
2021/12/15 05:04:28;;;;;;;;;;;;;;;;;;5111210;28;19919;-76
2021/12/15 05:06:53;;;;;;;;;;;;;;;;;;5117964;28;19916;-76
2021/12/15 05:09:18;;;;;;;;;;;;;;;;;;5118119;28;19919;-77
2021/12/15 05:11:47;;;;;;;;;;;;;;;;;;5117880;28;19926;-77
2021/12/15 05:14:12;;;;;;;;;;;;;;;;;;5116900;28;20292;-76
2021/12/15 05:16:38;;;;;;;;;;;;;;;;;;5117896;28;19931;-76
2021/12/15 05:19:03;;;;;;;;;;;;;;;;;;5117644;28;19942;-77
2021/12/15 05:21:30;;;;;;;;;;;;;;;;;;5117987;28;19955;-76
2021/12/15 05:24:00;;;;;;;;;;;;;;;;;;5117723;28;19916;-77
2021/12/15 05:26:25;;;;;;;;;;;;;;;;;;5117439;28;19939;-76
2021/12/15 05:28:51;;;;;;;;;;;;;;;;;;5117616;28;19915;-76
2021/12/15 05:31:16;;;;;;;;;;;;;;;;;;5117666;28;19916;-76
2021/12/15 05:33:42;;;;;;;;;;;;;;;;;;5117539;28;19916;-76
2021/12/15 05:36:07;;;;;;;;;;;;;;;;;;5096841;28;19912;-75
2021/12/15 05:38:32;;;;;;;;;;;;;;;;;;5095923;28;20393;-76
2021/12/15 05:40:59;;;;;;;;;;;;;;;;;;5097003;28;19916;-76
2021/12/15 05:43:24;;;;;;;;;;;;;;;;;;5096918;28;19915;-76
2021/12/15 05:45:51;;;;;;;;;;;;;;;;;;5096897;28;19970;-76
2021/12/15 05:48:17;;;;;;;;;;;;;;;;;;5096996;28;20010;-77
2021/12/15 05:50:43;;;;;;;;;;;;;;;;;;5096743;28;19962;-77
2021/12/15 05:53:09;;;;;;;;;;;;;;;;;;5096841;28;20004;-77
2021/12/15 05:55:35;;;;;;;;;;;;;;;;;;5096518;28;20361;-76
2021/12/15 05:58:00;;;;;;;;;;;;;;;;;;5095530;28;19923;-76
2021/12/15 06:00:31;;;;;;;;;;;;;;;;;;5096975;28;20377;-77
2021/12/15 06:02:57;;;;;;;;;;;;;;;;;;5096809;28;19919;-76
2021/12/15 06:05:23;;;;;;;;;;;;;;;;;;5094285;28;19939;-77
2021/12/15 06:07:48;;;;;;;;;;;;;;;;;;5096487;28;19924;-77
2021/12/15 06:10:16;;;;;;;;;;;;;;;;;;5095802;28;19923;-78
2021/12/15 06:12:43;;;;;;;;;;;;;;;;;;5096917;28;19922;-78
2021/12/15 06:15:08;;;;;;;;;;;;;;;;;;5096762;28;19922;-77
2021/12/15 06:17:34;;;;;;;;;;;;;;;;;;5096465;28;19916;-77
2021/12/15 06:19:59;;;;;;;;;;;;;;;;;;5096899;28;19920;-78
2021/12/15 06:22:27;;;;;;;;;;;;;;;;;;5096100;28;19927;-77
2021/12/15 06:24:54;;;;;;;;;;;;;;;;;;5096163;28;19916;-76
2021/12/15 06:27:20;;;;;;;;;;;;;;;;;;5096180;28;19937;-76
2021/12/15 06:29:49;;;;;;;;;;;;;;;;;;5096411;28;19916;-76
2021/12/15 06:32:14;;;;;;;;;;;;;;;;;;5096021;28;19952;-78
2021/12/15 06:34:40;;;;;;;;;;;;;;;;;;5083222;28;20389;-77
2021/12/15 06:37:05;;;;;;;;;;;;;;;;;;5075664;28;20007;-79
2021/12/15 06:39:31;;;;;;;;;;;;;;;;;;5077157;28;19935;-77
2021/12/15 06:41:56;;;;;;;;;;;;;;;;;;5077942;28;19920;-77
2021/12/15 06:44:22;;;;;;;;;;;;;;;;;;5075851;28;19917;-76
2021/12/15 07:00:21;;;;;;;;;;;;;;;;;;5095361;28;19939;-76
2021/12/15 07:02:47;;;;;;;;;;;;;;;;;;5094514;28;20374;-77
2021/12/15 07:05:12;;;;;;;;;;;;;;;;;;5114004;28;19941;-76
2021/12/15 07:07:39;;;;;;;;;;;;;;;;;;5116035;28;20361;-76
2021/12/15 07:10:05;;;;;;;;;;;;;;;;;;5115604;28;19938;-76
2021/12/15 07:12:31;;;;;;;;;;;;;;;;;;5115839;28;19966;-79
2021/12/15 07:14:56;;;;;;;;;;;;;;;;;;5114980;28;20430;-76
2021/12/15 07:17:24;;;;;;;;;;;;;;;;;;5114257;28;19916;-77
2021/12/15 07:20:06;;;;;;;;;;;;;;;;;;5115954;28;19938;-77
2021/12/15 07:25:07;;;;;;;;;;;;;;;;;;5115104;28;19963;-77
2021/12/15 07:27:32;;;;;;;;;;;;;;;;;;5115464;28;20003;-76
2021/12/15 07:29:58;;;;;;;;;;;;;;;;;;5115490;28;19938;-75
2021/12/15 07:32:23;;;;;;;;;;;;;;;;;;5114926;28;19919;-75
2021/12/15 07:34:48;;;;;;;;;;;;;;;;;;5098085;28;19923;-76
2021/12/15 07:37:14;;;;;;;;;;;;;;;;;;5094657;28;19916;-76
2021/12/15 07:39:45;;;;;;;;;;;;;;;;;;5095108;28;19966;-77
2021/12/15 07:42:12;;;;;;;;;;;;;;;;;;5094855;28;20017;-77
2021/12/15 07:44:38;;;;;;;;;;;;;;;;;;5096112;28;20393;-79
2021/12/15 07:47:04;;;;;;;;;;;;;;;;;;5094501;28;19920;-77
2021/12/15 07:49:30;;;;;;;;;;;;;;;;;;5079967;28;19916;-78
2021/12/15 07:52:04;;;;;;;;;;;;;;;;;;5073582;28;19916;-80
2021/12/15 07:54:34;;;;;;;;;;;;;;;;;;5078282;28;19915;-79
2021/12/15 07:57:01;;;;;;;;;;;;;;;;;;5075970;28;19920;-76
2021/12/15 07:59:26;;;;;;;;;;;;;;;;;;5073293;28;20417;-78
2021/12/15 08:01:52;;;;;;;;;;;;;;;;;;5073232;28;19917;-76
2021/12/15 08:04:18;;;;;;;;;;;;;;;;;;5090678;28;19919;-77
2021/12/15 08:06:46;;;;;;;;;;;;;;;;;;5114663;28;20365;-77
2021/12/15 08:09:12;;;;;;;;;;;;;;;;;;5113862;28;19916;-78
2021/12/15 08:11:37;;;;;;;;;;;;;;;;;;5114580;28;19920;-80
2021/12/15 08:14:02;;;;;;;;;;;;;;;;;;5117064;28;19976;-80
2021/12/15 08:16:27;;;;;;;;;;;;;;;;;;5120053;28;19983;-81
2021/12/15 08:18:53;;;;;;;;;;;;;;;;;;5119415;28;20323;-81
2021/12/15 08:21:18;;;;;;;;;;;;;;;;;;5118370;28;20338;-78
2021/12/15 08:23:44;;;;;;;;;;;;;;;;;;5119368;28;19920;-78
2021/12/15 08:26:09;;;;;;;;;;;;;;;;;;5120543;28;19942;-80
2021/12/15 08:28:34;;;;;;;;;;;;;;;;;;5120353;28;19912;-80
2021/12/15 08:31:00;;;;;;;;;;;;;;;;;;5117875;28;19961;-80
2021/12/15 08:33:26;;;;;;;;;;;;;;;;;;5117127;28;20412;-78
2021/12/15 08:35:57;;;;;;;;;;;;;;;;;;5097127;28;19916;-80
2021/12/15 08:38:23;;;;;;;;;;;;;;;;;;5098056;28;19920;-78
2021/12/15 08:40:51;;;;;;;;;;;;;;;;;;5096840;28;20273;-77
2021/12/15 08:43:17;;;;;;;;;;;;;;;;;;5097225;28;19916;-78
2021/12/15 08:45:46;;;;;;;;;;;;;;;;;;5099756;28;20032;-78
2021/12/15 08:48:11;;;;;;;;;;;;;;;;;;5091537;28;21467;-77
2021/12/15 08:50:39;;;;;;;;;;;;;;;;;;5076330;28;19949;-80
2021/12/15 08:53:09;;;;;;;;;;;;;;;;;;5079480;28;19922;-77
2021/12/15 08:55:34;;;;;;;;;;;;;;;;;;5075796;28;19966;-78
2021/12/15 08:58:04;;;;;;;;;;;;;;;;;;5074941;28;19962;-77
2021/12/15 09:00:30;;;;;;;;;;;;;;;;;;5074071;28;20270;-78
2021/12/15 09:02:55;;;;;;;;;;;;;;;;;;5073972;28;19923;-76
2021/12/15 09:05:22;;;;;;;;;;;;;;;;;;5108104;28;19925;-76
2021/12/15 09:07:50;;;;;;;;;;;;;;;;;;5118893;28;19973;-78
2021/12/15 09:10:20;;;;;;;;;;;;;;;;;;5117690;28;19923;-75
2021/12/15 09:12:45;;;;;;;;;;;;;;;;;;5114581;28;20274;-76
2021/12/15 09:15:11;;;;;;;;;;;;;;;;;;5117159;28;19916;-75
2021/12/15 09:17:37;;;;;;;;;;;;;;;;;;5116909;28;19923;-81
2021/12/15 09:20:04;;;;;;;;;;;;;;;;;;5114234;28;20285;-77
2021/12/15 09:22:29;;;;;;;;;;;;;;;;;;5113844;28;19931;-74
2021/12/15 09:24:55;;;;;;;;;;;;;;;;;;5112597;28;19916;-74
2021/12/15 09:27:20;;;;;;;;;;;;;;;;;;5113768;28;19923;-74
2021/12/15 09:29:45;;;;;;;;;;;;;;;;;;5113819;28;19951;-75
2021/12/15 09:32:10;;;;;;;;;;;;;;;;;;5113705;28;19937;-75
2021/12/15 09:34:36;;;;;;;;;;;;;;;;;;5103914;28;20006;-75
2021/12/15 09:37:02;;;;;;;;;;;;;;;;;;5093278;28;19923;-75
2021/12/15 09:39:28;;;;;;;;;;;;;;;;;;5093062;28;19931;-75
2021/12/15 09:41:54;;;;;;;;;;;;;;;;;;5092233;28;19916;-75
2021/12/15 09:44:23;;;;;;;;;;;;;;;;;;5093231;28;19954;-75
2021/12/15 10:02:02;;;;;;;;;;;;;;;;;;5096791;28;19920;-75
2021/12/15 10:06:21;;;;;;;;;;;;;;;;;;5076567;28;19917;-75
2021/12/15 10:17:28;;;;;;;;;;;;;;;;;;5076275;28;19920;-76
2021/12/15 10:19:53;;;;;;;;;;;;;;;;;;5076128;28;20306;-76
2021/12/15 10:22:42;;;;;;;;;;;;;;;;;;5076125;28;19920;-75
2021/12/15 10:25:10;;;;;;;;;;;;;;;;;;5075928;28;19921;-76
2021/12/15 10:27:35;;;;;;;;;;;;;;;;;;5076441;28;20325;-75
2021/12/15 10:30:05;;;;;;;;;;;;;;;;;;5075912;28;19916;-75
2021/12/15 10:32:32;;;;;;;;;;;;;;;;;;5074731;28;20400;-75
2021/12/15 10:35:04;;;;;;;;;;;;;;;;;;5091978;28;20285;-75
2021/12/15 10:37:29;;;;;;;;;;;;;;;;;;5096053;28;19916;-76
2021/12/15 10:40:08;;;;;;;;;;;;;;;;;;5096032;28;20386;-76
2021/12/15 10:42:34;;;;;;;;;;;;;;;;;;5096006;28;20294;-75
2021/12/15 10:45:04;;;;;;;;;;;;;;;;;;5096027;28;19916;-77
2021/12/15 10:47:30;;;;;;;;;;;;;;;;;;5094431;28;20430;-76
2021/12/15 10:49:55;;;;;;;;;;;;;;;;;;5096020;28;19916;-76
2021/12/15 10:52:20;;;;;;;;;;;;;;;;;;5095831;28;19946;-76
2021/12/15 10:54:50;;;;;;;;;;;;;;;;;;5095904;28;19920;-77
2021/12/15 10:57:21;;;;;;;;;;;;;;;;;;5095709;28;19923;-77
2021/12/15 10:59:50;;;;;;;;;;;;;;;;;;5095819;28;19993;-77
2021/12/15 11:02:21;;;;;;;;;;;;;;;;;;5096054;28;19923;-77
2021/12/15 11:04:50;;;;;;;;;;;;;;;;;;5094776;28;20274;-77
2021/12/15 11:07:15;;;;;;;;;;;;;;;;;;5096179;28;19916;-77
2021/12/15 11:09:44;;;;;;;;;;;;;;;;;;5095940;28;20003;-76
2021/12/15 11:12:15;;;;;;;;;;;;;;;;;;5095400;28;19916;-76
2021/12/15 11:14:41;;;;;;;;;;;;;;;;;;5095462;28;19959;-76
2021/12/15 11:17:07;;;;;;;;;;;;;;;;;;5095484;28;19923;-77
2021/12/15 11:19:40;;;;;;;;;;;;;;;;;;5095655;28;19920;-77
2021/12/15 11:22:24;;;;;;;;;;;;;;;;;;5094700;28;19930;-77
2021/12/15 11:24:49;;;;;;;;;;;;;;;;;;5095159;28;20381;-79
2021/12/15 11:27:15;;;;;;;;;;;;;;;;;;5096120;28;19908;-77
2021/12/15 11:29:41;;;;;;;;;;;;;;;;;;5097091;28;19923;-78
2021/12/15 11:32:06;;;;;;;;;;;;;;;;;;5097376;28;19915;-78
2021/12/15 11:34:31;;;;;;;;;;;;;;;;;;5097477;28;19923;-78
2021/12/15 11:36:57;;;;;;;;;;;;;;;;;;5097177;28;20035;-78
2021/12/15 11:39:24;;;;;;;;;;;;;;;;;;5101921;28;19955;-78
2021/12/15 11:41:52;;;;;;;;;;;;;;;;;;5116638;28;19935;-78
2021/12/15 11:44:17;;;;;;;;;;;;;;;;;;5117082;28;19968;-77
2021/12/15 11:46:47;;;;;;;;;;;;;;;;;;5104269;28;20010;-78
2021/12/15 11:49:23;;;;;;;;;;;;;;;;;;5096315;28;20366;-78
2021/12/15 11:51:57;;;;;;;;;;;;;;;;;;5090358;28;19923;-78
2021/12/15 11:54:25;;;;;;;;;;;;;;;;;;5075137;28;19916;-78
2021/12/15 11:56:52;;;;;;;;;;;;;;;;;;5084165;28;19920;-77
2021/12/15 11:59:37;;;;;;;;;;;;;;;;;;5098011;28;20385;-78
2021/12/15 12:02:15;;;;;;;;;;;;;;;;;;5109913;28;19990;-78
2021/12/15 12:04:46;;;;;;;;;;;;;;;;;;5095722;28;19916;-78
2021/12/15 12:07:17;;;;;;;;;;;;;;;;;;5076691;28;19938;-78
2021/12/15 12:09:44;;;;;;;;;;;;;;;;;;5095910;28;19923;-78
2021/12/15 12:12:10;;;;;;;;;;;;;;;;;;5090775;28;19917;-78
2021/12/15 12:14:42;;;;;;;;;;;;;;;;;;5076001;28;19970;-78
2021/12/15 12:17:12;;;;;;;;;;;;;;;;;;5079793;28;19919;-79
2021/12/15 12:19:43;;;;;;;;;;;;;;;;;;5097987;28;19931;-79
2021/12/15 12:22:09;;;;;;;;;;;;;;;;;;5092819;28;19920;-78
2021/12/15 12:24:35;;;;;;;;;;;;;;;;;;5084036;28;19916;-77
2021/12/15 12:27:01;;;;;;;;;;;;;;;;;;5078630;28;20393;-77
2021/12/15 12:29:27;;;;;;;;;;;;;;;;;;5080372;28;20417;-76
2021/12/15 12:31:52;;;;;;;;;;;;;;;;;;5097029;28;20358;-78
2021/12/15 12:34:17;;;;;;;;;;;;;;;;;;5093402;28;19924;-76
2021/12/15 12:36:43;;;;;;;;;;;;;;;;;;5079566;28;20393;-78
2021/12/15 12:39:10;;;;;;;;;;;;;;;;;;5075940;28;19928;-82
2021/12/15 12:41:43;;;;;;;;;;;;;;;;;;5086936;28;20271;-84
2021/12/15 12:44:11;;;;;;;;;;;;;;;;;;5084137;28;20292;-83
2021/12/15 12:46:45;;;;;;;;;;;;;;;;;;5083584;28;20312;-83
2021/12/15 12:59:58;;;;;;;;;;;;;;;;;;5093377;28;19955;-77
2021/12/15 13:02:29;;;;;;;;;;;;;;;;;;5094389;28;19966;-76
2021/12/15 13:04:54;;;;;;;;;;;;;;;;;;5093985;28;19955;-76
2021/12/15 13:07:38;;;;;;;;;;;;;;;;;;5092048;28;20297;-76
2021/12/15 13:10:04;;;;;;;;;;;;;;;;;;5093950;28;19961;-76
2021/12/15 13:12:37;;;;;;;;;;;;;;;;;;5092843;28;19916;-77
2021/12/15 13:15:02;;;;;;;;;;;;;;;;;;5092284;28;19970;-76
2021/12/15 13:17:35;;;;;;;;;;;;;;;;;;5093285;28;20353;-76
2021/12/15 13:20:00;;;;;;;;;;;;;;;;;;5094531;28;20018;-76
2021/12/15 13:30:29;;;;;;;;;;;;;;;;;;5095634;28;19923;-77
2021/12/15 13:33:02;;;;;;;;;;;;;;;;;;5085137;28;20302;-75
2021/12/15 13:35:33;;;;;;;;;;;;;;;;;;5085959;28;19998;-75
2021/12/15 13:37:59;;;;;;;;;;;;;;;;;;5086808;28;19967;-75
2021/12/15 13:40:48;;;;;;;;;;;;;;;;;;5087344;28;19952;-75
2021/12/15 13:43:31;;;;;;;;;;;;;;;;;;5094384;28;19916;-75
2021/12/15 13:45:57;;;;;;;;;;;;;;;;;;5096955;28;20404;-75
2021/12/15 13:48:41;;;;;;;;;;;;;;;;;;5096896;28;19924;-75
2021/12/15 13:51:06;;;;;;;;;;;;;;;;;;5097778;28;19922;-75
2021/12/15 13:53:34;;;;;;;;;;;;;;;;;;5097573;28;20019;-75
2021/12/15 13:56:00;;;;;;;;;;;;;;;;;;5097369;28;20342;-75
2021/12/15 13:58:30;;;;;;;;;;;;;;;;;;5096851;28;20023;-75
2021/12/15 14:01:04;;;;;;;;;;;;;;;;;;5096297;28;20297;-75
2021/12/15 14:03:38;;;;;;;;;;;;;;;;;;5096479;28;19916;-75
2021/12/15 14:06:03;;;;;;;;;;;;;;;;;;5094623;28;19924;-75
2021/12/15 14:08:31;;;;;;;;;;;;;;;;;;5096721;28;19916;-75
2021/12/15 14:10:58;;;;;;;;;;;;;;;;;;5084312;28;19985;-75
2021/12/15 14:13:35;;;;;;;;;;;;;;;;;;5076283;28;20015;-75
2021/12/15 14:16:01;;;;;;;;;;;;;;;;;;5076233;28;19924;-75
2021/12/15 14:18:27;;;;;;;;;;;;;;;;;;5076201;28;19920;-75
2021/12/15 14:20:55;;;;;;;;;;;;;;;;;;5076199;28;19962;-75
2021/12/15 14:23:24;;;;;;;;;;;;;;;;;;5076316;28;19960;-75
2021/12/15 14:25:50;;;;;;;;;;;;;;;;;;5075993;28;19967;-75
2021/12/15 14:28:15;;;;;;;;;;;;;;;;;;5076195;28;19948;-75
2021/12/15 14:30:42;;;;;;;;;;;;;;;;;;5074480;28;19913;-75
2021/12/15 14:33:17;;;;;;;;;;;;;;;;;;5077002;28;19962;-75
2021/12/15 14:35:43;;;;;;;;;;;;;;;;;;5096150;28;19915;-75
2021/12/15 14:38:08;;;;;;;;;;;;;;;;;;5094772;28;19981;-75
2021/12/15 14:40:33;;;;;;;;;;;;;;;;;;5096036;28;19916;-75
2021/12/15 14:42:59;;;;;;;;;;;;;;;;;;5096230;28;19916;-75
2021/12/15 14:45:24;;;;;;;;;;;;;;;;;;5096151;28;20007;-75
2021/12/15 14:47:50;;;;;;;;;;;;;;;;;;5094584;28;20321;-75
2021/12/15 14:50:18;;;;;;;;;;;;;;;;;;5096090;28;19916;-75
2021/12/15 14:52:46;;;;;;;;;;;;;;;;;;5095805;28;19920;-75
2021/12/15 14:55:16;;;;;;;;;;;;;;;;;;5095897;28;19916;-75
2021/12/15 14:57:42;;;;;;;;;;;;;;;;;;5095751;28;19916;-75
2021/12/15 15:00:25;;;;;;;;;;;;;;;;;;5095804;28;19923;-75
2021/12/15 15:02:52;;;;;;;;;;;;;;;;;;5084082;28;20001;-75
2021/12/15 15:05:20;;;;;;;;;;;;;;;;;;5077836;28;19921;-75
2021/12/15 15:07:50;;;;;;;;;;;;;;;;;;5075081;28;19923;-75
2021/12/15 15:10:17;;;;;;;;;;;;;;;;;;5111950;28;20008;-75
2021/12/15 15:12:46;;;;;;;;;;;;;;;;;;5115928;28;19920;-75
2021/12/15 15:15:14;;;;;;;;;;;;;;;;;;5115971;28;19920;-75
2021/12/15 15:17:53;;;;;;;;;;;;;;;;;;5115822;28;19946;-75
2021/12/15 15:20:29;;;;;;;;;;;;;;;;;;5116392;28;19920;-76
2021/12/15 15:22:57;;;;;;;;;;;;;;;;;;5115538;28;19916;-77
2021/12/15 15:25:24;;;;;;;;;;;;;;;;;;5115620;28;19916;-76
2021/12/15 15:27:55;;;;;;;;;;;;;;;;;;5115484;28;19955;-76
2021/12/15 15:30:23;;;;;;;;;;;;;;;;;;5115464;28;20349;-76
2021/12/15 15:32:50;;;;;;;;;;;;;;;;;;5114056;28;20425;-76
2021/12/15 15:35:16;;;;;;;;;;;;;;;;;;5095055;28;19917;-77
2021/12/15 15:37:43;;;;;;;;;;;;;;;;;;5095003;28;19912;-76
2021/12/15 15:40:12;;;;;;;;;;;;;;;;;;5093493;28;19938;-76
2021/12/15 15:42:38;;;;;;;;;;;;;;;;;;5094206;28;20020;-77
2021/12/15 15:45:04;;;;;;;;;;;;;;;;;;5094838;28;20011;-76
2021/12/15 15:47:29;;;;;;;;;;;;;;;;;;5094579;28;19978;-76
2021/12/15 15:49:59;;;;;;;;;;;;;;;;;;5094887;28;20374;-76
2021/12/15 15:52:24;;;;;;;;;;;;;;;;;;5094823;28;19916;-77
2021/12/15 15:54:50;;;;;;;;;;;;;;;;;;5094556;28;20541;-76
2021/12/15 15:57:16;;;;;;;;;;;;;;;;;;5094925;28;19916;-77
2021/12/15 15:59:41;;;;;;;;;;;;;;;;;;5094382;28;19939;-76
2021/12/15 16:02:08;;;;;;;;;;;;;;;;;;5094728;28;19916;-77
2021/12/15 16:04:34;;;;;;;;;;;;;;;;;;5086175;28;19917;-76
2021/12/15 16:07:01;;;;;;;;;;;;;;;;;;5083425;28;19916;-76
2021/12/15 16:09:29;;;;;;;;;;;;;;;;;;5085467;28;19916;-76
2021/12/15 16:11:56;;;;;;;;;;;;;;;;;;5084141;28;19994;-76
2021/12/15 16:14:22;;;;;;;;;;;;;;;;;;5084027;28;19955;-76
2021/12/15 16:16:57;;;;;;;;;;;;;;;;;;5082782;28;19921;-76
2021/12/15 16:19:37;;;;;;;;;;;;;;;;;;5082915;28;20250;-76
2021/12/15 16:25:09;;;;;;;;;;;;;;;;;;5093983;28;19916;-76
2021/12/15 16:27:38;;;;;;;;;;;;;;;;;;5093853;28;20015;-76
2021/12/15 16:30:06;;;;;;;;;;;;;;;;;;5094408;28;19948;-76
2021/12/15 16:32:38;;;;;;;;;;;;;;;;;;5092782;28;19919;-75
2021/12/15 16:35:15;;;;;;;;;;;;;;;;;;5104803;28;19916;-78
2021/12/15 16:37:42;;;;;;;;;;;;;;;;;;5114932;28;20002;-77
2021/12/15 16:40:08;;;;;;;;;;;;;;;;;;5116740;28;19965;-78
2021/12/15 16:42:54;;;;;;;;;;;;;;;;;;5115418;28;20265;-76
2021/12/15 16:45:19;;;;;;;;;;;;;;;;;;5112914;28;19938;-75
2021/12/15 16:47:44;;;;;;;;;;;;;;;;;;5113857;28;20385;-76
2021/12/15 16:50:11;;;;;;;;;;;;;;;;;;5113874;28;19915;-76
2021/12/15 16:52:38;;;;;;;;;;;;;;;;;;5113530;28;20258;-73
2021/12/15 16:55:29;;;;;;;;;;;;;;;;;;5117040;28;19915;-73
2021/12/15 16:57:55;;;;;;;;;;;;;;;;;;5113315;28;20333;-73
2021/12/15 17:00:28;;;;;;;;;;;;;;;;;;5118412;28;20415;-75
2021/12/15 17:03:02;;;;;;;;;;;;;;;;;;5118448;28;19922;-74
2021/12/15 17:05:31;;;;;;;;;;;;;;;;;;5104072;28;19927;-73
2021/12/15 17:07:57;;;;;;;;;;;;;;;;;;5098105;28;19916;-76
2021/12/15 17:10:26;;;;;;;;;;;;;;;;;;5098056;28;20377;-74
2021/12/15 17:12:59;;;;;;;;;;;;;;;;;;5098073;28;20001;-74
2021/12/15 17:18:15;;;;;;;;;;;;;;;;;;5097748;28;19916;-76
2021/12/15 17:20:41;;;;;;;;;;;;;;;;;;5097094;28;19916;-76
2021/12/15 17:23:06;;;;;;;;;;;;;;;;;;5097102;28;20052;-76
2021/12/15 17:25:33;;;;;;;;;;;;;;;;;;5097377;28;19912;-75
2021/12/15 17:28:04;;;;;;;;;;;;;;;;;;5097775;28;20389;-75
2021/12/15 17:30:32;;;;;;;;;;;;;;;;;;5098070;28;19916;-78
2021/12/15 17:32:57;;;;;;;;;;;;;;;;;;5089884;28;19974;-78
2021/12/15 17:35:23;;;;;;;;;;;;;;;;;;5087106;28;19951;-74
2021/12/15 17:37:48;;;;;;;;;;;;;;;;;;5095741;28;20012;-76
2021/12/15 17:40:14;;;;;;;;;;;;;;;;;;5079175;28;19955;-74
2021/12/15 17:42:39;;;;;;;;;;;;;;;;;;5097213;28;19923;-75
2021/12/15 17:45:04;;;;;;;;;;;;;;;;;;5097271;28;19916;-75
2021/12/15 17:47:30;;;;;;;;;;;;;;;;;;5096811;28;20343;-73
2021/12/15 17:50:04;;;;;;;;;;;;;;;;;;5096459;28;20401;-74
2021/12/15 17:52:32;;;;;;;;;;;;;;;;;;5095926;28;19916;-74
2021/12/15 17:55:07;;;;;;;;;;;;;;;;;;5096851;28;19920;-74
2021/12/15 17:57:34;;;;;;;;;;;;;;;;;;5096761;28;19916;-75
2021/12/15 18:00:00;;;;;;;;;;;;;;;;;;5096808;28;19965;-74
2021/12/15 18:02:30;;;;;;;;;;;;;;;;;;5096787;28;20293;-73
2021/12/15 18:04:56;;;;;;;;;;;;;;;;;;5096392;28;19923;-73
2021/12/15 18:07:21;;;;;;;;;;;;;;;;;;5085946;28;19923;-73
2021/12/15 18:09:47;;;;;;;;;;;;;;;;;;5086535;28;20133;-73
2021/12/15 18:12:15;;;;;;;;;;;;;;;;;;5086009;28;20319;-73
2021/12/15 18:14:40;;;;;;;;;;;;;;;;;;5084647;28;19921;-73
2021/12/15 18:17:07;;;;;;;;;;;;;;;;;;5081102;28;20279;-73
2021/12/15 18:19:33;;;;;;;;;;;;;;;;;;5076000;28;19928;-73
2021/12/15 18:21:58;;;;;;;;;;;;;;;;;;5075465;28;19939;-73
2021/12/15 18:24:24;;;;;;;;;;;;;;;;;;5085712;28;19916;-73
2021/12/15 18:26:50;;;;;;;;;;;;;;;;;;5086722;28;20309;-73
2021/12/15 18:29:16;;;;;;;;;;;;;;;;;;5084361;28;19917;-73
2021/12/15 18:31:43;;;;;;;;;;;;;;;;;;5085691;28;20011;-75